Time;durP1;ratioP1;P1;durP2;ratioP2;P2;SDS_P1;SDS_P2;PMS_P1;PMS_P2;Temp;Humidity;BMP_temperature;BMP_pressure;BME280_temperature;BME280_humidity;BME280_pressure;Samples;Min_cycle;Max_cycle;Signal;HPM_P1;HPM_P2
2022/06/18 00:01:36;;;;;;;2.65;1.90;;;18.40;85.10;;;18.36;64.71;97780.63;4953183;28;20535;-40
2022/06/18 00:04:09;;;;;;;2.38;1.83;;;18.40;84.90;;;18.31;64.82;97769.38;4958060;28;20053;-40
2022/06/18 00:07:00;;;;;;;2.72;2.03;;;18.40;84.80;;;18.33;63.41;97778.16;4957481;28;20069;-40
2022/06/18 00:09:41;;;;;;;3.13;1.90;;;18.30;84.10;;;18.37;62.00;97774.31;4938197;28;20734;-40
2022/06/18 00:15:23;;;;;;;2.38;1.60;;;18.40;82.80;;;18.43;61.69;97779.31;4956607;28;20069;-40
2022/06/18 00:17:50;;;;;;;4.32;1.77;;;18.50;82.90;;;18.43;61.64;97773.97;4952628;28;20098;-40
2022/06/18 00:20:18;;;;;;;3.13;1.77;;;18.40;82.70;;;18.45;61.36;97766.72;4959449;28;20499;-40
2022/06/18 00:22:48;;;;;;;4.70;1.80;;;18.50;82.50;;;18.48;60.96;97773.66;4958365;28;20043;-40
2022/06/18 00:25:29;;;;;;;1.90;1.50;;;18.50;82.30;;;18.44;61.10;97764.13;4941188;28;20216;-40
2022/06/18 00:27:56;;;;;;;1.48;1.30;;;18.50;82.30;;;18.46;61.32;97767.56;4940234;28;20035;-40
2022/06/18 00:30:25;;;;;;;1.75;1.48;;;18.50;82.70;;;18.44;61.20;97770.31;4958466;28;20474;-40
2022/06/18 00:32:51;;;;;;;2.30;1.60;;;18.50;82.70;;;18.45;61.13;97769.38;4960929;28;20031;-40
2022/06/18 00:35:18;;;;;;;2.03;1.60;;;18.50;82.60;;;18.45;60.79;97774.72;4963434;28;20453;-40
2022/06/18 00:37:45;;;;;;;2.47;1.80;;;18.40;82.30;;;18.45;60.65;97766.72;4961382;28;20034;-40
2022/06/18 00:40:23;;;;;;;1.90;1.60;;;18.50;82.30;;;18.39;60.74;97755.53;4955261;28;20034;-40
2022/06/18 00:42:50;;;;;;;2.50;1.70;;;18.40;82.10;;;18.42;60.84;97766.03;4937567;28;20065;-40
2022/06/18 00:45:23;;;;;;;1.77;1.35;;;18.40;83.20;;;18.38;61.39;97772.53;4953688;28;20042;-40
2022/06/18 00:48:08;;;;;;;2.38;1.58;;;18.40;82.70;;;18.32;62.24;97771.09;4942642;28;20031;-40
2022/06/18 00:50:49;;;;;;;1.60;1.40;;;18.40;83.50;;;18.28;62.55;97764.22;4957826;28;20034;-40
2022/06/18 00:53:21;;;;;;;1.73;1.42;;;18.30;84.40;;;18.20;63.08;97761.19;4936190;28;20124;-40
2022/06/18 00:55:55;;;;;;;2.67;1.65;;;18.20;83.90;;;18.21;62.98;97760.22;4953331;28;20399;-40
2022/06/18 00:58:31;;;;;;;1.65;1.45;;;18.20;84.00;;;18.18;62.91;97758.63;4940915;28;20038;-40
2022/06/18 01:00:59;;;;;;;5.47;1.80;;;18.20;84.00;;;18.15;63.36;97760.63;4962520;28;20023;-40
2022/06/18 01:03:35;;;;;;;5.07;1.70;;;18.20;84.30;;;18.11;64.16;97758.13;4947290;28;20300;-40
2022/06/18 01:06:12;;;;;;;2.17;1.80;;;18.20;84.70;;;18.06;64.25;97759.38;4960439;28;20084;-40
2022/06/18 01:08:40;;;;;;;2.83;2.03;;;18.10;85.20;;;18.01;65.58;97761.47;4943479;28;20043;-40
2022/06/18 01:11:17;;;;;;;3.72;2.47;;;18.00;85.90;;;17.94;65.60;97752.97;4957385;28;20039;-39
2022/06/18 01:13:43;;;;;;;2.53;1.98;;;18.00;85.80;;;17.91;65.54;97746.03;4946390;28;20390;-40
2022/06/18 01:16:10;;;;;;;2.88;2.15;;;18.00;86.00;;;17.95;66.15;97745.84;4940182;28;20034;-40
2022/06/18 01:18:38;;;;;;;3.92;2.22;;;18.00;86.40;;;17.94;66.29;97750.31;4960069;28;20089;-40
2022/06/18 01:21:28;;;;;;;3.58;2.08;;;18.00;86.60;;;17.95;65.84;97751.19;4960184;28;20036;-40
2022/06/18 01:24:09;;;;;;;2.13;1.75;;;18.00;86.20;;;17.94;66.32;97742.28;4958096;28;20419;-40
2022/06/18 01:26:36;;;;;;;2.35;2.15;;;17.90;86.50;;;17.90;67.30;97736.28;4962130;28;20538;-40
2022/06/18 01:29:02;;;;;;;3.72;2.42;;;17.90;87.20;;;17.86;67.39;97729.44;4945667;28;21681;-40
2022/06/18 01:31:28;;;;;;;4.07;1.80;;;17.90;87.20;;;17.83;66.75;97729.56;4957689;28;20031;-40
2022/06/18 01:33:54;;;;;;;2.30;2.00;;;17.90;87.00;;;17.81;66.99;97736.81;4935328;28;20030;-40
2022/06/18 01:36:21;;;;;;;2.47;1.70;;;17.80;87.10;;;17.77;67.44;97724.63;4957495;28;20055;-40
2022/06/18 01:38:48;;;;;;;2.03;1.83;;;17.80;87.40;;;17.79;67.74;97724.53;4965740;28;20058;-40
2022/06/18 01:41:50;;;;;;;2.55;2.00;;;17.80;87.60;;;17.74;67.56;97723.00;4961332;28;20018;-40
2022/06/18 01:44:22;;;;;;;2.30;1.63;;;17.80;87.60;;;17.74;67.36;97722.13;4959403;28;20031;-40
2022/06/18 01:46:53;;;;;;;4.78;2.10;;;17.80;87.70;;;17.69;67.84;97717.09;4957419;28;20538;-40
2022/06/18 01:49:27;;;;;;;2.30;1.73;;;17.70;87.80;;;17.65;66.94;97704.03;4956470;28;20117;-40
2022/06/18 01:51:55;;;;;;;2.53;1.70;;;17.70;87.80;;;17.67;67.54;97710.13;4936163;28;20035;-40
2022/06/18 01:54:27;;;;;;;2.63;1.92;;;17.70;87.70;;;17.69;66.50;97703.75;4943353;28;20035;-40
2022/06/18 01:57:01;;;;;;;3.63;1.80;;;17.70;87.10;;;17.69;65.93;97695.78;4939529;28;20088;-40
2022/06/18 01:59:34;;;;;;;4.20;1.75;;;17.80;86.90;;;17.78;64.42;97690.81;4963505;28;20032;-40
2022/06/18 02:02:00;;;;;;;3.72;1.80;;;17.80;86.00;;;17.90;63.58;97698.09;4957194;28;20023;-41
2022/06/18 02:04:27;;;;;;;2.72;1.80;;;17.90;85.40;;;17.91;63.58;97686.47;4952827;28;20038;-40
2022/06/18 02:06:54;;;;;;;2.05;1.75;;;17.90;85.30;;;17.96;64.41;97689.69;4958289;28;20026;-41
2022/06/18 02:09:27;;;;;;;3.08;1.63;;;18.00;85.70;;;17.96;64.67;97692.34;4942820;28;20096;-40
2022/06/18 02:11:56;;;;;;;2.33;1.73;;;18.00;85.90;;;17.97;64.53;97688.75;4941363;28;20042;-40
2022/06/18 02:14:24;;;;;;;2.60;1.70;;;18.00;85.90;;;17.96;64.47;97686.16;4938607;28;20116;-40
2022/06/18 02:16:51;;;;;;;2.03;1.70;;;18.00;85.90;;;17.96;64.44;97686.16;4950990;28;20030;-40
2022/06/18 02:19:18;;;;;;;1.70;1.52;;;18.00;85.80;;;17.94;65.05;97680.91;4935263;28;20363;-40
2022/06/18 02:21:49;;;;;;;3.20;1.90;;;18.00;86.20;;;17.86;65.58;97676.06;4956165;28;20451;-40
2022/06/18 02:24:17;;;;;;;2.40;1.80;;;17.90;86.50;;;17.85;65.86;97671.69;4942927;28;20038;-41
2022/06/18 02:26:45;;;;;;;1.60;1.40;;;17.90;87.00;;;17.81;66.51;97674.63;4959228;28;20494;-40
2022/06/18 02:29:23;;;;;;;3.67;1.90;;;17.90;87.30;;;17.72;66.70;97671.56;4940294;28;20041;-38
2022/06/18 02:31:51;;;;;;;3.20;1.73;;;17.80;87.60;;;17.71;66.23;97669.84;4957948;28;20081;-38
2022/06/18 02:34:26;;;;;;;1.75;1.42;;;17.80;87.20;;;17.70;65.95;97667.28;4937869;28;20043;-38
2022/06/18 02:36:52;;;;;;;2.08;1.40;;;17.70;87.00;;;17.71;66.13;97676.97;4958936;28;20045;-38
2022/06/18 02:39:50;;;;;;;2.33;1.60;;;17.70;87.20;;;17.68;66.67;97670.03;4957181;28;20039;-40
2022/06/18 02:42:16;;;;;;;2.55;1.88;;;17.70;87.50;;;17.63;67.59;97668.59;4924600;28;20478;-40
2022/06/18 02:44:44;;;;;;;3.00;1.67;;;17.60;88.20;;;17.59;68.05;97675.09;4961941;28;20045;-40
2022/06/18 02:47:12;;;;;;;1.90;1.70;;;17.60;88.40;;;17.53;68.92;97668.28;4960643;28;20030;-40
2022/06/18 02:49:51;;;;;;;2.67;1.80;;;17.60;89.10;;;17.48;68.80;97670.38;4953826;28;20037;-40
2022/06/18 02:52:17;;;;;;;2.05;1.70;;;17.50;89.00;;;17.42;69.45;97676.09;4960532;28;20518;-40
2022/06/18 02:54:42;;;;;;;2.33;1.60;;;17.50;89.60;;;17.37;70.38;97676.34;4959305;28;20042;-40
2022/06/18 02:57:22;;;;;;;2.83;1.85;;;17.40;90.00;;;17.26;71.27;97668.16;4957484;22;20038;-45
2022/06/18 02:59:47;;;;;;;2.67;1.88;;;17.40;90.40;;;17.20;72.74;97671.19;5010584;28;20033;-46
2022/06/18 03:02:13;;;;;;;2.05;1.60;;;17.30;90.80;;;17.17;72.90;97675.75;5012465;28;20033;-45
2022/06/18 03:04:39;;;;;;;1.98;1.58;;;17.20;91.30;;;17.11;72.89;97675.25;5014154;28;20033;-49
2022/06/18 03:07:04;;;;;;;2.22;1.80;;;17.20;90.90;;;17.06;73.28;97683.50;5011025;28;20038;-48
2022/06/18 03:09:30;;;;;;;3.05;1.80;;;17.10;91.00;;;17.03;73.51;97678.38;4994174;28;20081;-48
2022/06/18 03:12:08;;;;;;;2.63;1.90;;;17.10;91.10;;;17.01;73.67;97671.41;4991310;28;20038;-49
2022/06/18 03:14:34;;;;;;;2.60;1.77;;;17.10;91.20;;;16.98;74.17;97670.66;4992511;28;20034;-49
2022/06/18 03:17:00;;;;;;;2.13;1.65;;;17.00;91.40;;;16.96;74.46;97671.69;4996406;28;20475;-49
2022/06/18 03:19:56;;;;;;;3.70;2.08;;;17.00;91.50;;;16.93;74.83;97667.38;4988155;28;20038;-48
2022/06/18 03:22:22;;;;;;;2.97;2.13;;;17.00;91.70;;;16.92;74.69;97671.03;4992465;28;20080;-50
2022/06/18 03:24:48;;;;;;;2.20;1.73;;;17.00;91.60;;;16.87;74.51;97664.22;4989029;28;20743;-48
2022/06/18 03:27:15;;;;;;;1.70;1.52;;;17.00;91.60;;;16.90;74.29;97659.56;4996862;28;20084;-48
2022/06/18 03:29:43;;;;;;;2.13;1.70;;;17.00;91.60;;;16.89;74.62;97667.69;4988216;28;20325;-49
2022/06/18 03:32:09;;;;;;;3.10;2.03;;;17.00;91.70;;;16.88;74.73;97665.94;4991241;28;20038;-48
2022/06/18 03:34:35;;;;;;;1.92;1.63;;;16.90;91.80;;;16.86;75.15;97667.84;4990397;28;20041;-49
2022/06/18 03:37:00;;;;;;;2.50;1.60;;;17.00;92.00;;;16.86;75.17;97658.03;4997100;28;20034;-49
2022/06/18 03:39:26;;;;;;;2.63;1.75;;;16.90;91.90;;;16.87;75.40;97665.09;4994285;28;20038;-48
2022/06/18 03:41:52;;;;;;;3.03;2.05;;;17.00;92.10;;;16.92;74.32;97671.03;4990016;28;20038;-48
2022/06/18 03:44:18;;;;;;;2.30;2.08;;;17.00;91.80;;;16.96;73.67;97674.38;4998450;28;20030;-46
2022/06/18 03:46:45;;;;;;;4.60;1.60;;;17.00;91.50;;;17.01;73.04;97676.75;5003699;28;20048;-49
2022/06/18 03:49:26;;;;;;;3.28;1.95;;;17.10;91.30;;;17.10;72.08;97676.19;5004647;28;20509;-50
2022/06/18 03:51:54;;;;;;;3.25;1.90;;;17.20;91.10;;;17.16;71.14;97683.84;4999856;28;20065;-49
2022/06/18 03:54:20;;;;;;;2.30;2.10;;;17.20;90.90;;;17.24;70.51;97686.91;5001670;28;20037;-50
2022/06/18 03:56:47;;;;;;;3.38;2.00;;;17.30;90.70;;;17.28;70.72;97683.13;5001604;28;20084;-44
2022/06/18 03:59:13;;;;;;;1.88;1.60;;;17.40;90.70;;;17.32;71.06;97689.97;5000636;28;20037;-48
2022/06/18 04:01:40;;;;;;;2.45;1.77;;;17.40;90.80;;;17.35;71.53;97688.91;5002788;28;20033;-46
2022/06/18 04:04:08;;;;;;;2.28;2.05;;;17.40;91.00;;;17.38;71.55;97685.22;4998562;28;21771;-47
2022/06/18 04:06:34;;;;;;;1.48;1.38;;;17.40;91.00;;;17.43;71.66;97692.00;5000038;28;20069;-46
2022/06/18 04:09:00;;;;;;;2.35;1.50;;;17.50;91.00;;;17.49;71.16;97691.63;4998813;28;20030;-46
2022/06/18 04:11:26;;;;;;;3.10;1.90;;;17.50;90.90;;;17.54;71.75;97702.00;5000668;28;20085;-50
2022/06/18 04:13:51;;;;;;;2.58;1.65;;;17.60;91.10;;;17.60;71.77;97698.97;5000076;28;20096;-48
2022/06/18 04:16:17;;;;;;;1.67;1.58;;;17.60;91.10;;;17.65;71.42;97702.22;5002014;28;20045;-48
2022/06/18 04:18:43;;;;;;;3.05;1.70;;;17.70;91.10;;;17.70;71.19;97699.28;5001202;28;20529;-48
2022/06/18 04:21:09;;;;;;;2.40;2.03;;;17.80;91.00;;;17.78;70.79;97690.81;5002210;28;20038;-49
2022/06/18 04:23:35;;;;;;;3.08;1.77;;;17.80;90.90;;;17.93;69.90;97703.25;5003910;28;20386;-46
2022/06/18 04:26:01;;;;;;;1.90;1.58;;;17.90;90.60;;;18.03;68.78;97696.34;5007428;28;20111;-48
2022/06/18 04:28:27;;;;;;;6.93;1.92;;;18.10;90.30;;;18.16;67.17;97696.47;5003037;28;20030;-49
2022/06/18 04:30:53;;;;;;;3.08;1.83;;;18.20;89.80;;;18.30;66.51;97695.56;5003735;28;20042;-47
2022/06/18 04:33:18;;;;;;;1.77;1.63;;;18.30;89.10;;;18.41;66.40;97692.22;5003165;28;20482;-48
2022/06/18 04:35:44;;;;;;;2.90;1.88;;;18.40;89.00;;;18.49;66.39;97696.13;5004911;28;20037;-48
2022/06/18 04:38:12;;;;;;;1.85;1.60;;;18.50;89.00;;;18.63;66.25;97705.06;5005193;28;20143;-49
2022/06/18 04:40:39;;;;;;;2.65;1.90;;;18.60;89.00;;;18.73;66.12;97705.31;5001899;28;20085;-48
2022/06/18 04:43:07;;;;;;;2.60;1.70;;;18.70;88.90;;;18.81;65.89;97706.56;5004002;28;20644;-46
2022/06/18 04:45:35;;;;;;;2.00;1.73;;;18.80;88.70;;;18.91;65.88;97703.28;5002157;28;20549;-49
2022/06/18 04:48:01;;;;;;;4.93;2.13;;;18.90;88.70;;;18.99;65.00;97699.16;5002542;28;20029;-48
2022/06/18 04:50:35;;;;;;;2.45;1.77;;;19.00;88.30;;;19.10;64.64;97686.88;5002268;28;20056;-48
2022/06/18 04:53:02;;;;;;;2.13;1.92;;;19.00;88.00;;;19.16;64.45;97695.34;5002401;28;20034;-49
2022/06/18 04:55:28;;;;;;;4.13;2.22;;;19.10;87.80;;;19.26;63.82;97693.75;5001363;28;20088;-48
2022/06/18 04:57:53;;;;;;;4.32;2.03;;;19.20;87.30;;;19.42;62.65;97687.38;5000959;28;20563;-48
2022/06/18 05:00:19;;;;;;;2.70;1.83;;;19.30;87.00;;;19.75;61.41;97689.56;4998727;28;20035;-47
2022/06/18 05:02:45;;;;;;;3.45;2.15;;;19.50;86.50;;;20.20;59.81;97691.78;4996248;28;20080;-48
2022/06/18 05:05:29;;;;;;;2.13;1.90;;;19.70;85.80;;;20.88;58.17;97698.47;4996498;28;20064;-49
2022/06/18 05:07:55;;;;;;;3.60;2.47;;;20.10;85.20;;;21.34;55.89;97697.69;4993018;28;20029;-49
2022/06/18 05:10:21;;;;;;;2.72;1.80;;;20.50;83.80;;;21.96;54.60;97697.50;4997428;28;20060;-49
2022/06/18 05:12:47;;;;;;;3.05;1.80;;;20.90;83.10;;;22.50;53.03;97702.16;4996727;28;20092;-49
2022/06/18 05:15:13;;;;;;;2.20;2.00;;;21.40;82.10;;;23.23;50.99;97697.09;4995669;28;20483;-50
2022/06/18 05:17:45;;;;;;;1.75;1.52;;;21.90;80.90;;;23.99;48.84;97694.25;4993169;28;20096;-49
2022/06/18 05:20:18;;;;;;;;;;;22.40;79.20;;;24.55;47.12;97701.06;4997811;28;20038;-48
2022/06/18 05:22:44;;;;;;;;;;;22.90;77.50;;;25.06;45.63;97699.16;4997916;28;19964;-49
2022/06/18 05:25:11;;;;;;;2.28;1.90;;;23.40;75.70;;;25.64;44.14;97696.47;4999847;28;19945;-50
2022/06/18 05:27:38;;;;;;;2.38;1.83;;;23.90;74.10;;;26.07;43.22;97694.28;4994529;28;20566;-49
2022/06/18 05:30:11;;;;;;;3.17;2.10;;;24.30;72.70;;;26.28;42.41;97686.78;4999288;28;20544;-47
2022/06/18 05:32:37;;;;;;;3.15;1.70;;;24.60;71.40;;;26.28;42.03;97694.91;5000332;28;20045;-47
2022/06/18 05:35:03;;;;;;;2.30;1.88;;;24.70;70.60;;;26.04;42.17;97691.84;4999291;28;20021;-49
2022/06/18 05:37:31;;;;;;;1.90;1.70;;;24.70;70.10;;;25.46;42.51;97693.63;4999723;28;20042;-49
2022/06/18 05:39:57;;;;;;;3.65;2.40;;;24.50;69.00;;;24.91;43.19;97688.78;5000215;28;20052;-48
2022/06/18 05:42:23;;;;;;;2.33;2.13;;;24.20;69.30;;;24.28;43.89;97682.75;4998870;28;20486;-49
2022/06/18 05:44:49;;;;;;;2.72;2.20;;;23.90;69.50;;;23.98;45.00;97682.63;4998938;28;20083;-49
2022/06/18 05:47:31;;;;;;;4.38;2.42;;;23.60;70.70;;;23.74;46.32;97687.41;5001309;28;20064;-50
2022/06/18 05:49:57;;;;;;;3.25;2.28;;;23.40;71.90;;;23.46;46.74;97676.31;4997552;28;22395;-49
2022/06/18 05:52:24;;;;;;;2.63;2.30;;;23.20;72.60;;;23.39;47.44;97692.13;4997522;28;20085;-46
2022/06/18 05:54:51;;;;;;;3.95;2.85;;;23.10;73.20;;;23.23;47.97;97687.19;5000680;28;20394;-48
2022/06/18 05:57:18;;;;;;;4.20;2.65;;;23.00;73.70;;;23.17;48.27;97700.31;5004454;28;20026;-46
2022/06/18 05:59:44;;;;;;;3.22;2.30;;;22.90;73.90;;;23.15;48.59;97702.25;4997736;28;20044;-46
2022/06/18 06:02:13;;;;;;;4.80;2.67;;;22.90;74.40;;;23.11;48.66;97692.75;5003533;28;20025;-46
2022/06/18 06:04:40;;;;;;;4.15;2.35;;;22.90;74.40;;;23.12;48.97;97687.25;4997502;28;20041;-46
2022/06/18 06:07:06;;;;;;;3.88;2.70;;;22.90;74.80;;;23.09;49.09;97679.44;5001115;28;20036;-45
2022/06/18 06:12:16;;;;;;;11.07;2.65;;;23.00;75.00;;;23.21;49.12;97696.38;4996397;28;20076;-49
2022/06/18 06:14:42;;;;;;;2.88;2.30;;;23.10;74.80;;;23.34;49.11;97685.44;4989925;28;20655;-45
2022/06/18 06:17:16;;;;;;;2.75;2.03;;;23.20;74.80;;;23.50;49.14;97683.16;4990631;28;20045;-45
2022/06/18 06:19:42;;;;;;;3.22;2.30;;;23.20;74.90;;;23.64;49.07;97687.34;4996483;28;20072;-45
2022/06/18 06:22:08;;;;;;;3.70;2.38;;;23.40;75.00;;;23.76;49.29;97680.91;4998457;28;20104;-48
2022/06/18 06:24:33;;;;;;;3.63;2.25;;;23.60;75.20;;;23.91;48.84;97686.84;4998251;28;20105;-50
2022/06/18 06:26:59;;;;;;;3.15;2.15;;;23.70;74.70;;;24.05;48.26;97684.75;4994874;28;20026;-49
2022/06/18 06:29:25;;;;;;;2.50;2.30;;;23.80;74.00;;;24.19;48.33;97681.72;4985315;28;20129;-48
2022/06/18 06:31:50;;;;;;;2.60;2.17;;;24.00;74.00;;;24.33;48.64;97683.19;4990320;28;20044;-49
2022/06/18 06:34:16;;;;;;;2.75;1.90;;;24.10;74.40;;;24.44;47.84;97683.09;4997830;28;20076;-49
2022/06/18 06:36:42;;;;;;;2.42;1.95;;;24.20;73.50;;;24.55;47.11;97679.50;4998381;28;20642;-49
2022/06/18 06:39:07;;;;;;;2.85;2.10;;;24.30;72.50;;;24.68;47.33;97676.53;4995722;28;20033;-45
2022/06/18 06:41:33;;;;;;;3.83;2.40;;;24.50;72.60;;;24.78;47.03;97682.78;4995692;28;20034;-49
2022/06/18 06:43:59;;;;;;;3.15;2.33;;;24.60;72.60;;;24.89;47.09;97671.88;4993602;28;20053;-49
2022/06/18 06:46:25;;;;;;;2.92;2.15;;;24.70;72.30;;;25.04;46.44;97675.00;4996553;28;20118;-49
2022/06/18 06:48:51;;;;;;;4.22;2.35;;;24.80;71.90;;;25.12;46.26;97666.22;4992390;28;21359;-47
2022/06/18 06:51:24;;;;;;;3.33;2.33;;;24.90;71.40;;;25.26;45.83;97670.38;5000770;28;20354;-49
2022/06/18 06:53:51;;;;;;;3.75;2.65;;;25.10;71.00;;;25.34;44.92;97673.22;4997715;28;20038;-48
2022/06/18 06:59:06;;;;;;;5.43;2.70;;;25.30;70.50;;;25.58;44.77;97667.34;4997025;28;20053;-49
2022/06/18 07:01:34;;;;;;;2.75;2.42;;;25.40;69.60;;;25.67;44.85;97674.56;4991752;28;20100;-48
2022/06/18 07:04:00;;;;;;;3.20;2.53;;;25.50;69.80;;;25.78;44.58;97678.13;5000096;28;20517;-49
2022/06/18 07:06:26;;;;;;;4.57;2.45;;;25.60;69.60;;;25.85;44.94;97681.94;4999652;28;20497;-50
2022/06/18 07:08:52;;;;;;;3.78;2.33;;;25.70;69.30;;;25.98;43.82;97670.84;4995560;28;20026;-46
2022/06/18 07:11:18;;;;;;;2.65;2.25;;;25.80;68.60;;;26.05;43.74;97672.78;4993507;28;20049;-48
2022/06/18 07:13:44;;;;;;;4.05;2.67;;;25.90;68.20;;;26.13;42.76;97671.19;4987516;28;20037;-45
2022/06/18 07:16:15;;;;;;;3.75;2.60;;;25.90;67.90;;;26.21;43.16;97676.72;4985016;28;20030;-46
2022/06/18 07:18:41;;;;;;;5.35;2.83;;;26.00;67.90;;;26.31;43.03;97682.09;4988548;28;20037;-48
2022/06/18 07:21:12;;;;;;;3.92;2.20;;;26.10;67.40;;;26.39;42.78;97669.53;4994108;28;20034;-49
2022/06/18 07:23:38;;;;;;;3.00;2.50;;;26.20;67.20;;;26.48;42.73;97678.59;4994407;28;20464;-46
2022/06/18 07:26:04;;;;;;;5.07;2.70;;;26.20;66.90;;;26.58;41.73;97676.69;5000120;28;20034;-48
2022/06/18 07:28:30;;;;;;;3.25;2.60;;;26.30;66.10;;;26.63;41.90;97676.25;4998800;28;20072;-49
2022/06/18 07:30:56;;;;;;;6.07;2.80;;;26.50;66.10;;;26.68;41.85;97676.66;4995368;28;20116;-46
2022/06/18 07:33:26;;;;;;;3.33;2.70;;;26.50;65.10;;;26.79;41.38;97662.94;5002259;28;20034;-49
2022/06/18 07:35:52;;;;;;;4.20;2.60;;;26.60;65.70;;;26.78;40.78;97669.34;4996055;28;20033;-49
2022/06/18 07:38:19;;;;;;;2.70;2.15;;;26.70;64.60;;;26.87;41.00;97659.47;4990588;28;20045;-50
2022/06/18 07:40:49;;;;;;;3.10;2.30;;;26.70;64.70;;;26.95;41.20;97659.53;4990235;28;20758;-50
2022/06/18 07:43:52;;;;;;;5.20;2.70;;;26.80;65.00;;;27.05;40.65;97659.47;4994290;28;20114;-49
2022/06/18 07:46:18;;;;;;;3.17;2.30;;;26.90;64.90;;;27.16;40.47;97656.53;4988654;28;20100;-48
2022/06/18 07:48:44;;;;;;;3.42;2.60;;;27.00;64.80;;;27.21;40.25;97651.50;4987551;28;20038;-49
2022/06/18 07:51:11;;;;;;;4.43;2.90;;;27.10;63.90;;;27.22;39.38;97658.63;4987509;28;20041;-48
2022/06/18 07:53:37;;;;;;;4.13;2.63;;;27.10;63.00;;;27.26;39.76;97650.19;4997624;28;20052;-45
2022/06/18 07:56:04;;;;;;;5.40;2.50;;;27.10;62.70;;;27.32;40.15;97646.91;5001521;28;20053;-46
2022/06/18 07:58:30;;;;;;;3.00;2.30;;;27.20;63.30;;;27.47;39.97;97658.84;4996434;28;20209;-46
2022/06/18 08:00:57;;;;;;;5.22;2.90;;;27.30;62.50;;;27.51;39.03;97648.56;4991543;28;20034;-50
2022/06/18 08:03:24;;;;;;;2.50;2.30;;;27.40;62.00;;;27.66;39.13;97654.28;4986334;28;20683;-45
2022/06/18 08:05:52;;;;;;;3.55;2.30;;;27.40;62.00;;;27.78;38.67;97653.84;4990754;28;20048;-45
2022/06/18 08:08:17;;;;;;;3.08;2.17;;;27.50;61.30;;;27.89;38.88;97652.72;4998815;28;20030;-45
2022/06/18 08:10:48;;;;;;;2.72;2.33;;;27.60;61.70;;;27.92;38.24;97643.44;4995096;28;20030;-45
2022/06/18 08:13:14;;;;;;;2.92;2.60;;;27.70;60.30;;;28.03;37.13;97650.44;4997933;28;20062;-49
2022/06/18 08:15:40;;;;;;;2.33;2.13;;;27.80;59.30;;;28.06;35.94;97642.00;4995362;28;20030;-49
2022/06/18 08:18:06;;;;;;;4.30;2.28;;;27.80;58.50;;;28.00;36.55;97638.09;4994148;28;20041;-49
2022/06/18 08:20:34;;;;;;;4.10;2.28;;;27.80;58.40;;;28.10;35.88;97636.13;4991974;28;20485;-45
2022/06/18 08:23:01;;;;;;;2.38;2.17;;;27.90;58.20;;;28.11;34.80;97639.66;4994693;28;20383;-46
2022/06/18 08:25:30;;;;;;;2.65;2.05;;;27.90;56.60;;;28.20;35.58;97638.69;5013442;28;20030;-47
2022/06/18 08:28:00;;;;;;;2.17;1.83;;;27.90;57.10;;;28.29;36.01;97643.13;4997412;28;20124;-46
2022/06/18 08:30:25;;;;;;;2.22;2.03;;;28.00;57.50;;;28.41;36.18;97643.69;4993832;28;20494;-48
2022/06/18 08:32:51;;;;;;;3.58;2.22;;;28.10;58.00;;;28.42;36.08;97642.66;4996640;28;20387;-50
2022/06/18 08:35:17;;;;;;;4.47;2.40;;;28.30;57.70;;;28.55;36.06;97636.81;5002071;28;20033;-47
2022/06/18 08:37:44;;;;;;;2.75;1.92;;;28.40;57.90;;;28.65;35.79;97642.97;5002908;28;20026;-47
2022/06/18 08:40:45;;;;;;;3.45;2.15;;;28.40;57.50;;;28.74;35.22;97636.53;4995844;28;20022;-48
2022/06/18 08:44:07;;;;;;;3.40;2.20;;;28.50;57.00;;;28.86;34.76;97634.38;5000091;28;20414;-46
2022/06/18 08:46:50;;;;;;;2.45;1.70;;;28.60;56.30;;;28.94;33.66;97628.09;4992443;28;20033;-49
2022/06/18 08:49:54;;;;;;;5.22;2.05;;;28.70;56.20;;;28.97;31.95;97633.19;4981162;28;20037;-47
2022/06/18 08:52:46;;;;;;;2.80;2.20;;;28.80;53.40;;;28.87;32.04;97611.63;5001834;28;20566;-47
2022/06/18 08:55:19;;;;;;;;;;;28.80;53.60;;;29.04;32.39;97626.06;5000689;28;20061;-47
2022/06/18 08:58:06;;;;;;;3.58;2.22;;;28.80;53.40;;;29.09;33.01;97623.72;5004281;28;19913;-46
2022/06/18 09:00:56;;;;;;;3.22;2.10;;;28.90;53.70;;;29.11;31.58;97612.69;5002287;28;20030;-47
2022/06/18 09:03:30;;;;;;;4.72;2.10;;;28.90;53.00;;;29.15;33.21;97615.94;4999169;28;20072;-51
2022/06/18 09:06:34;;;;;;;2.80;2.20;;;28.90;53.50;;;29.20;32.94;97611.69;4997706;28;20044;-48
2022/06/18 09:09:43;;;;;;;4.13;2.17;;;29.00;53.30;;;29.27;33.55;97609.13;5001607;28;20022;-46
2022/06/18 09:12:50;;;;;;;3.03;2.30;;;29.10;54.50;;;29.34;33.77;97614.75;5020139;22;20049;-42
2022/06/18 09:15:26;;;;;;;3.58;2.00;;;29.20;53.80;;;29.42;32.62;97610.16;5007168;28;20063;-40
2022/06/18 09:18:08;;;;;;;2.95;2.13;;;29.30;53.30;;;29.47;32.42;97604.22;5023204;28;20037;-40
2022/06/18 09:20:52;;;;;;;2.78;2.10;;;29.30;53.10;;;29.54;32.61;97605.22;5017830;28;20137;-40
2022/06/18 09:23:28;;;;;;;3.83;2.10;;;29.40;52.90;;;29.61;31.53;97611.69;5011827;28;20017;-40
2022/06/18 09:25:58;;;;;;;4.25;2.13;;;29.40;52.20;;;29.67;30.64;97608.25;5014466;28;20029;-40
2022/06/18 09:28:47;;;;;;;3.45;2.00;;;29.50;51.60;;;29.68;32.19;97600.94;5017942;28;20037;-40
2022/06/18 09:31:22;;;;;;;3.25;1.98;;;29.50;53.30;;;29.66;30.77;97606.53;5010350;28;20112;-40
2022/06/18 09:33:57;;;;;;;2.40;1.95;;;29.50;50.90;;;29.73;30.93;97597.72;5018995;28;20099;-40
2022/06/18 09:36:36;;;;;;;2.63;2.00;;;29.50;51.00;;;29.75;32.26;97595.69;5015072;28;20034;-40
2022/06/18 09:39:15;;;;;;;4.32;2.22;;;29.50;52.00;;;29.66;31.63;97582.09;5016861;28;20071;-41
2022/06/18 09:42:01;;;;;;;3.33;1.90;;;29.60;52.10;;;29.85;31.70;97596.38;5011261;28;20763;-40
2022/06/18 09:44:48;;;;;;;2.33;1.90;;;29.60;51.50;;;29.91;31.31;97595.66;5008038;28;20032;-41
2022/06/18 09:47:30;;;;;;;6.65;2.17;;;29.70;51.70;;;29.93;30.29;97590.88;5011971;28;20030;-41
2022/06/18 09:49:55;;;;;;;3.20;2.15;;;29.70;50.20;;;29.90;30.02;97593.97;5011118;28;20045;-40
2022/06/18 09:52:36;;;;;;;2.72;2.00;;;29.70;50.30;;;29.95;31.80;97586.16;5003227;28;20053;-40
2022/06/18 09:55:28;;;;;;;3.65;2.00;;;29.80;53.10;;;29.89;30.09;97586.81;5029380;28;20038;-40
2022/06/18 09:57:57;;;;;;;3.47;2.45;;;29.80;49.60;;;29.95;31.86;97586.16;5029766;28;20049;-40
2022/06/18 10:00:29;;;;;;;2.78;2.20;;;29.80;51.50;;;30.01;32.80;97585.44;5023240;28;20422;-40
2022/06/18 10:03:02;;;;;;;3.42;2.13;;;29.80;52.90;;;30.07;31.72;97592.03;5015512;28;20037;-40
2022/06/18 10:08:34;;;;;;;5.40;2.20;;;29.90;51.30;;;30.04;31.19;97586.94;5010349;28;20087;-40
2022/06/18 10:11:07;;;;;;;3.22;2.38;;;29.90;51.80;;;30.10;31.43;97578.09;5009343;28;20476;-41
2022/06/18 10:13:42;;;;;;;2.40;2.20;;;29.90;51.70;;;30.10;30.08;97575.38;5003061;28;20037;-41
2022/06/18 10:16:35;;;;;;;3.25;2.25;;;30.00;50.40;;;30.15;31.44;97575.69;5019745;28;20033;-40
2022/06/18 10:19:32;;;;;;;7.80;2.20;;;30.00;50.90;;;30.25;30.39;97573.59;5026102;28;20311;-40
2022/06/18 10:22:33;;;;;;;3.70;2.00;;;30.10;51.00;;;30.34;31.16;97571.72;5014506;28;20033;-40
2022/06/18 10:25:41;;;;;;;3.40;2.50;;;30.20;51.10;;;30.39;31.16;97566.59;4983481;28;20033;-41
2022/06/18 10:28:37;;;;;;;2.53;1.85;;;30.20;51.20;;;30.55;28.21;97560.22;5013572;28;20029;-40
2022/06/18 10:31:42;;;;;;;3.13;1.88;;;30.30;48.40;;;30.69;27.92;97555.88;5012981;28;20103;-40
2022/06/18 10:34:36;;;;;;;1.92;1.65;;;30.50;47.10;;;30.86;27.97;97550.31;5011592;28;20241;-41
2022/06/18 10:37:42;;;;;;;2.00;1.80;;;30.70;47.30;;;31.00;26.84;97542.22;5009274;28;20136;-41
2022/06/18 10:40:55;;;;;;;1.50;1.40;;;30.80;46.50;;;31.09;25.25;97542.16;5003029;28;20176;-41
2022/06/18 10:43:32;;;;;;;1.55;1.20;;;30.90;44.30;;;31.15;25.37;97535.97;5007108;28;20060;-40
2022/06/18 10:46:07;;;;;;;1.48;1.38;;;31.00;43.90;;;31.14;23.98;97526.13;5009806;28;20053;-41
2022/06/18 10:48:34;;;;;;;2.38;1.38;;;31.00;41.20;;;31.12;24.15;97525.44;5010863;28;20109;-41
2022/06/18 10:51:02;;;;;;;1.40;1.30;;;30.90;42.20;;;31.19;24.77;97527.25;5008472;28;20037;-40
2022/06/18 10:53:46;;;;;;;2.20;1.70;;;31.00;42.90;;;31.30;24.76;97517.78;5014239;28;20500;-40